createdAt,value
2019-02-26T00:00:49.630Z,6.27
2019-02-26T00:03:23.912Z,8.27
2019-02-26T00:05:54.381Z,7.13
2019-02-26T00:08:26.815Z,9.87
2019-02-26T00:10:59.323Z,7.23
2019-02-26T00:13:31.929Z,8.63
2019-02-26T00:16:07.695Z,6.90
2019-02-26T00:18:36.175Z,10.00
2019-02-26T00:21:06.840Z,6.67
2019-02-26T00:23:37.508Z,9.50
2019-02-26T00:26:10.478Z,11.10
2019-02-26T00:28:41.541Z,9.43
2019-02-26T00:31:12.898Z,9.77
2019-02-26T00:33:43.554Z,8.27
2019-02-26T00:36:15.393Z,6.37
2019-02-26T00:38:46.269Z,8.53
2019-02-26T00:41:20.281Z,8.33
2019-02-26T00:43:51.199Z,8.13
2019-02-26T00:46:24.088Z,7.63
2019-02-26T00:48:54.012Z,8.20
2019-02-26T00:51:25.260Z,8.03
2019-02-26T00:53:57.444Z,5.40
2019-02-26T00:56:31.531Z,6.30
2019-02-26T00:59:02.723Z,9.43
2019-02-26T01:01:33.640Z,7.73
2019-02-26T01:04:04.414Z,9.13
2019-02-26T01:06:36.077Z,7.50
2019-02-26T01:09:11.272Z,9.57
2019-02-26T01:11:42.960Z,12.47
2019-02-26T01:14:15.836Z,9.67
2019-02-26T01:16:48.277Z,5.77
2019-02-26T01:19:19.832Z,6.93
2019-02-26T01:21:50.983Z,7.80
2019-02-26T01:24:23.541Z,9.00
2019-02-26T01:26:54.025Z,6.00
2019-02-26T01:29:26.032Z,7.27
2019-02-26T01:31:57.385Z,8.23
2019-02-26T01:34:28.165Z,6.80
2019-02-26T01:37:00.808Z,6.77
2019-02-26T01:39:31.224Z,7.17
2019-02-26T01:42:02.144Z,6.87
2019-02-26T01:44:35.024Z,8.70
2019-02-26T01:47:05.148Z,6.97
2019-02-26T01:49:36.086Z,7.33
2019-02-26T01:52:08.334Z,9.47
2019-02-26T01:54:39.588Z,6.70
2019-02-26T01:57:10.387Z,6.23
2019-02-26T01:59:41.788Z,6.67
2019-02-26T03:02:42.794Z,5.57
2019-02-26T03:05:11.772Z,8.37
2019-02-26T03:07:44.931Z,6.63
2019-02-26T03:10:15.239Z,4.20
2019-02-26T03:12:50.943Z,5.63
2019-02-26T03:15:18.664Z,6.70
2019-02-26T03:17:49.412Z,4.33
2019-02-26T03:20:21.758Z,4.60
2019-02-26T03:22:52.461Z,3.70
2019-02-26T03:25:24.316Z,4.60
2019-02-26T03:27:55.504Z,6.37
2019-02-26T03:30:32.750Z,6.80
2019-02-26T03:33:03.897Z,5.43
2019-02-26T03:35:30.901Z,9.43
2019-02-26T03:38:03.595Z,8.77
2019-02-26T03:40:36.082Z,5.47
2019-02-26T03:43:07.764Z,6.40
2019-02-26T03:45:38.710Z,6.23
2019-02-26T03:48:09.637Z,5.57
2019-02-26T03:50:44.057Z,7.43
2019-02-26T03:53:12.683Z,8.60
2019-02-26T03:55:44.017Z,7.27
2019-02-26T03:58:14.852Z,5.37
2019-02-26T04:00:46.891Z,6.53
2019-02-26T04:03:17.735Z,9.03
2019-02-26T04:05:48.629Z,5.83
2019-02-26T04:08:21.903Z,6.17
2019-02-26T04:10:53.588Z,5.60
2019-02-26T04:13:24.140Z,5.20
2019-02-26T04:15:57.117Z,5.57
2019-02-26T04:18:27.177Z,8.30
2019-02-26T04:21:03.186Z,5.87
2019-02-26T04:23:30.229Z,9.60
2019-02-26T04:26:55.100Z,6.87
2019-02-26T04:30:13.667Z,7.50
2019-02-26T04:33:18.369Z,5.73
2019-02-26T04:36:37.850Z,7.00
2019-02-26T04:40:07.111Z,7.23
2019-02-26T04:43:20.652Z,9.17
2019-02-26T04:46:31.600Z,7.20
2019-02-26T04:49:02.512Z,9.17
2019-02-26T04:51:34.261Z,6.63
2019-02-26T04:54:05.770Z,7.23
2019-02-26T04:56:39.477Z,6.60
2019-02-26T04:59:09.837Z,10.00
2019-02-26T05:01:41.357Z,6.67
2019-02-26T05:04:12.117Z,6.13
2019-02-26T05:06:42.783Z,6.00
2019-02-26T05:09:13.455Z,7.30
2019-02-26T05:11:45.071Z,8.10
2019-02-26T05:14:20.995Z,7.60
2019-02-26T05:16:48.943Z,6.57
2019-02-26T05:19:21.749Z,8.93
2019-02-26T05:21:53.981Z,6.17
2019-02-26T05:24:26.294Z,7.53
2019-02-26T05:26:57.076Z,7.80
2019-02-26T05:29:27.749Z,9.33
2019-02-26T05:32:00.790Z,6.37
2019-02-26T05:34:30.816Z,7.10
2019-02-26T05:37:02.350Z,6.87
2019-02-26T05:39:33.859Z,8.27
2019-02-26T05:42:06.267Z,5.97
2019-02-26T05:44:37.049Z,6.73
2019-02-26T05:47:07.798Z,7.90
2019-02-26T05:49:40.754Z,6.33
2019-02-26T05:52:10.914Z,7.83
2019-02-26T05:54:41.583Z,9.00
2019-02-26T05:57:27.127Z,5.30
2019-02-26T05:59:44.712Z,7.00
2019-02-26T06:02:16.978Z,9.27
2019-02-26T06:04:47.846Z,6.73
2019-02-26T06:07:21.713Z,8.27
2019-02-26T06:09:53.401Z,7.83
2019-02-26T06:12:23.332Z,9.40
2019-02-26T06:14:57.531Z,9.43
2019-02-26T06:17:26.397Z,10.00
2019-02-26T06:20:08.147Z,5.33
2019-02-26T06:22:38.113Z,10.40
2019-02-26T06:25:14.116Z,6.70
2019-02-26T06:27:41.279Z,8.17
2019-02-26T06:30:12.852Z,7.33
2019-02-26T06:32:44.682Z,5.63
2019-02-26T06:35:16.977Z,6.57
2019-02-26T06:37:48.500Z,5.47
2019-02-26T06:40:19.197Z,8.07
2019-02-26T06:42:49.886Z,7.87
2019-02-26T06:45:20.578Z,10.30
2019-02-26T06:47:52.245Z,6.63
2019-02-26T06:50:23.616Z,7.13
2019-02-26T06:52:54.271Z,6.53
2019-02-26T06:55:25.057Z,6.70
2019-02-26T06:58:16.288Z,7.47
2019-02-26T07:00:48.187Z,8.20
2019-02-26T07:03:19.397Z,12.30
2019-02-26T07:05:50.082Z,7.63
2019-02-26T07:08:21.944Z,9.80
2019-02-26T07:10:53.143Z,8.80
2019-02-26T07:13:23.925Z,7.80
2019-02-26T07:15:54.601Z,7.37
2019-02-26T07:18:26.060Z,7.77
2019-02-26T07:20:58.265Z,7.17
2019-02-26T07:23:32.639Z,5.87
2019-02-26T07:26:02.505Z,6.07
2019-02-26T07:28:33.198Z,6.73
2019-02-26T07:31:05.457Z,9.30
2019-02-26T07:33:37.124Z,5.87
2019-02-26T07:36:08.615Z,6.87
2019-02-26T07:38:41.589Z,6.67
2019-02-26T07:41:11.765Z,9.00
2019-02-26T07:43:44.614Z,12.30
2019-02-26T07:46:17.614Z,8.33
2019-02-26T07:48:53.591Z,5.90
2019-02-26T07:51:21.783Z,5.23
2019-02-26T07:53:54.319Z,5.53
2019-02-26T07:56:25.960Z,7.23
2019-02-26T07:59:01.267Z,7.80
2019-02-26T08:01:29.577Z,7.60
2019-02-26T08:04:00.262Z,6.67
2019-02-26T08:06:31.672Z,7.93
2019-02-26T08:09:08.728Z,6.53
2019-02-26T08:11:40.762Z,6.80
2019-02-26T08:14:09.853Z,6.53
2019-02-26T08:16:40.517Z,7.67
2019-02-26T08:19:11.192Z,5.83
2019-02-26T08:21:41.870Z,9.70
2019-02-26T08:24:14.779Z,4.90
2019-02-26T08:26:45.684Z,6.80
2019-02-26T08:29:18.439Z,6.40
2019-02-26T08:31:51.969Z,6.17
2019-02-26T08:34:22.639Z,6.70
2019-02-26T08:36:53.372Z,8.53
2019-02-26T08:39:24.054Z,6.87
2019-02-26T08:42:08.592Z,6.87
2019-02-26T08:44:39.353Z,5.07
2019-02-26T08:47:11.969Z,6.23
2019-02-26T08:49:43.505Z,6.07
2019-02-26T08:52:16.826Z,6.03
2019-02-26T08:54:48.656Z,4.93
2019-02-26T08:57:20.228Z,6.50
2019-02-26T08:59:52.242Z,5.93
2019-02-26T09:02:24.643Z,7.13
2019-02-26T09:04:55.629Z,8.23
2019-02-26T09:07:26.649Z,9.93
2019-02-26T09:09:57.771Z,8.27
2019-02-26T09:12:28.558Z,5.53
2019-02-26T09:14:59.217Z,5.87
2019-02-26T09:17:32.517Z,5.50
2019-02-26T09:20:09.283Z,5.63
2019-02-26T09:22:34.914Z,5.77
2019-02-26T09:25:06.021Z,5.57
2019-02-26T09:27:42.805Z,6.20
2019-02-26T09:30:14.028Z,5.67
2019-02-26T09:32:45.112Z,5.40
2019-02-26T09:35:18.512Z,5.03
2019-02-26T09:37:52.090Z,5.40
2019-02-26T09:40:23.461Z,5.23
2019-02-26T09:42:55.134Z,6.53
2019-02-26T09:45:29.559Z,4.57
2019-02-26T09:48:01.016Z,6.60
2019-02-26T09:50:31.298Z,4.93
2019-02-26T09:53:01.953Z,5.97
2019-02-26T09:55:32.617Z,6.93
2019-02-26T09:58:03.307Z,4.57
2019-02-26T10:00:34.028Z,7.30
2019-02-26T10:03:06.173Z,6.10
2019-02-26T10:05:37.087Z,25.93
2019-02-26T10:08:07.777Z,7.40
2019-02-26T10:10:39.751Z,6.73
2019-02-26T10:13:10.589Z,4.80
2019-02-26T10:15:42.827Z,3.20
2019-02-26T10:18:15.184Z,4.63
2019-02-26T10:20:47.539Z,13.13
2019-02-26T10:23:19.379Z,5.77
2019-02-26T10:25:55.534Z,3.83
2019-02-26T10:28:22.986Z,6.40
2019-02-26T10:30:55.056Z,6.97
2019-02-26T10:33:26.065Z,3.43
2019-02-26T10:35:56.752Z,4.20
2019-02-26T10:38:29.598Z,6.00
2019-02-26T10:41:01.753Z,4.77
2019-02-26T10:43:32.203Z,6.20
2019-02-26T10:46:03.976Z,4.97
2019-02-26T10:48:34.992Z,5.63
2019-02-26T10:51:06.523Z,3.73
2019-02-26T10:53:37.953Z,5.60
2019-02-26T10:56:08.722Z,5.80
2019-02-26T10:58:39.395Z,4.33
2019-02-26T11:01:11.064Z,6.83
2019-02-26T11:03:44.382Z,6.50
2019-02-26T11:06:17.354Z,6.50
2019-02-26T11:08:50.433Z,6.77
2019-02-26T11:11:20.243Z,5.23
2019-02-26T11:13:53.374Z,4.87
2019-02-26T11:16:25.312Z,5.17
2019-02-26T11:18:55.785Z,6.90
2019-02-26T11:21:26.484Z,7.77
2019-02-26T11:23:58.479Z,6.60
2019-02-26T11:26:32.348Z,7.80
2019-02-26T11:29:02.966Z,6.97
2019-02-26T11:31:33.697Z,9.70
2019-02-26T11:34:07.291Z,7.00
2019-02-26T11:36:38.987Z,8.13
2019-02-26T11:39:12.082Z,8.67
2019-02-26T11:41:43.061Z,8.63
2019-02-26T11:44:19.048Z,10.13
2019-02-26T11:46:46.756Z,7.80
2019-02-26T11:49:19.389Z,8.63
2019-02-26T11:51:51.306Z,11.40
2019-02-26T11:54:21.998Z,9.10
2019-02-26T11:56:52.814Z,8.47
2019-02-26T11:59:23.506Z,7.13
2019-02-26T12:01:56.376Z,7.90
2019-02-26T12:04:26.726Z,13.23
2019-02-26T12:06:58.617Z,8.90
2019-02-26T12:09:32.415Z,7.90
2019-02-26T12:12:03.474Z,7.97
2019-02-26T12:14:37.001Z,7.40
2019-02-26T12:17:07.007Z,8.67
2019-02-26T12:19:37.699Z,7.97
2019-02-26T12:22:08.394Z,7.67
2019-02-26T12:24:39.065Z,7.20
2019-02-26T12:27:10.809Z,7.80
2019-02-26T12:29:44.919Z,7.60
2019-02-26T12:32:14.512Z,9.17
2019-02-26T12:34:47.756Z,7.97
2019-02-26T12:37:17.598Z,10.70
2019-02-26T12:39:49.926Z,11.93
2019-02-26T12:42:21.673Z,7.73
2019-02-26T12:44:52.548Z,7.83
2019-02-26T12:47:24.670Z,7.27
2019-02-26T12:49:56.235Z,7.07
2019-02-26T12:52:30.227Z,6.90
2019-02-26T12:55:00.802Z,7.97
2019-02-26T12:57:32.426Z,10.63
2019-02-26T13:00:03.177Z,9.03
2019-02-26T13:02:36.936Z,8.23
2019-02-26T13:05:10.370Z,8.50
2019-02-26T13:07:40.340Z,8.40
2019-02-26T13:10:13.670Z,6.83
2019-02-26T13:12:47.134Z,8.23
2019-02-26T13:15:19.325Z,7.33
2019-02-26T13:17:54.252Z,9.20
2019-02-26T13:20:23.278Z,8.03
2019-02-26T13:23:00.559Z,8.63
2019-02-26T13:25:26.846Z,7.00
2019-02-26T13:27:57.869Z,6.73
2019-02-26T13:30:28.569Z,6.73
2019-02-26T13:33:00.873Z,10.47
2019-02-26T13:35:31.664Z,7.07
2019-02-26T13:38:02.412Z,9.20
2019-02-26T13:40:38.468Z,8.17
2019-02-26T13:43:08.555Z,10.73
2019-02-26T13:45:39.622Z,8.60
2019-02-26T13:48:10.418Z,6.63
2019-02-26T13:50:41.857Z,6.43
2019-02-26T13:53:12.585Z,6.83
2019-02-26T13:55:43.344Z,7.27
2019-02-26T13:58:14.102Z,5.63
2019-02-26T14:00:45.216Z,6.80
2019-02-26T14:03:16.173Z,7.47
2019-02-26T14:05:46.869Z,7.70
2019-02-26T14:08:17.585Z,7.53
2019-02-26T14:10:48.245Z,8.87
2019-02-26T14:13:18.935Z,6.33
2019-02-26T14:15:49.692Z,5.40
2019-02-26T14:18:20.372Z,9.17
2019-02-26T14:20:51.253Z,7.27
2019-02-26T14:23:22.004Z,5.30
2019-02-26T14:25:52.773Z,6.97
2019-02-26T14:28:23.464Z,6.00
2019-02-26T14:30:54.153Z,7.90
2019-02-26T14:33:24.922Z,6.60
2019-02-26T14:35:55.677Z,5.90
2019-02-26T14:38:26.569Z,6.23
2019-02-26T14:40:57.317Z,7.00
2019-02-26T14:43:28.092Z,6.97
2019-02-26T14:45:59.333Z,5.60
2019-02-26T14:48:30.136Z,6.10
2019-02-26T14:51:00.817Z,6.23
2019-02-26T14:53:31.495Z,5.17
2019-02-26T14:56:02.177Z,6.43
2019-02-26T14:58:32.940Z,5.73
2019-02-26T15:01:04.002Z,7.37
2019-02-26T15:03:37.253Z,5.87
2019-02-26T15:06:12.501Z,5.17
2019-02-26T15:08:43.751Z,6.93
2019-02-26T15:11:14.538Z,7.30
2019-02-26T15:13:45.226Z,10.90
2019-02-26T15:16:15.923Z,12.53
2019-02-26T15:18:46.957Z,9.07
2019-02-26T15:21:17.693Z,8.03
2019-02-26T15:23:50.263Z,6.77
2019-02-26T15:26:20.761Z,15.43
2019-02-26T15:28:51.897Z,12.53
2019-02-26T15:31:22.654Z,5.70
2019-02-26T15:33:53.425Z,11.73
2019-02-26T15:36:24.186Z,4.13
2019-02-26T15:38:54.982Z,5.00
2019-02-26T15:41:26.469Z,5.53
2019-02-26T15:43:57.282Z,5.30
2019-02-26T15:46:28.623Z,5.30
2019-02-26T15:49:01.633Z,5.23
2019-02-26T15:51:32.399Z,4.47
2019-02-26T15:54:03.418Z,4.17
2019-02-26T15:56:34.192Z,5.17
2019-02-26T15:59:05.313Z,3.00
2019-02-26T16:01:37.022Z,2.83
2019-02-26T16:04:08.060Z,4.53
2019-02-26T16:06:38.766Z,3.07
2019-02-26T16:09:12.492Z,3.40
2019-02-26T16:11:42.591Z,3.60
2019-02-26T16:14:13.330Z,2.40
2019-02-26T16:16:44.017Z,2.90
2019-02-26T16:19:14.105Z,3.67
2019-02-26T16:21:44.770Z,3.13
2019-02-26T16:24:15.526Z,4.37
2019-02-26T16:26:46.217Z,6.97
2019-02-26T16:29:16.974Z,12.70
2019-02-26T16:31:47.930Z,11.07
2019-02-26T16:34:19.950Z,5.13
2019-02-26T16:36:51.304Z,3.07
2019-02-26T16:39:24.758Z,2.60
2019-02-26T16:41:55.502Z,3.43
2019-02-26T16:44:26.334Z,4.93
2019-02-26T16:46:57.094Z,10.77
2019-02-26T16:49:27.942Z,14.57
2019-02-26T16:52:00.918Z,8.47
2019-02-26T16:54:31.648Z,4.20
2019-02-26T16:57:02.322Z,4.17
2019-02-26T16:59:33.015Z,4.47
2019-02-26T17:02:03.749Z,3.23
2019-02-26T17:04:34.708Z,4.20
2019-02-26T17:07:05.913Z,3.47
2019-02-26T17:09:36.669Z,6.67
2019-02-26T17:12:07.605Z,8.10
2019-02-26T17:14:38.448Z,12.10
2019-02-26T17:17:09.136Z,12.83
2019-02-26T17:19:39.919Z,13.87
2019-02-26T17:22:10.778Z,13.70
2019-02-26T17:24:41.533Z,11.43
2019-02-26T17:27:12.502Z,10.33
2019-02-26T17:29:43.191Z,11.60
2019-02-26T17:32:14.025Z,9.83
2019-02-26T17:34:44.761Z,11.07
2019-02-26T17:37:15.464Z,10.23
2019-02-26T17:39:46.418Z,8.57
2019-02-26T17:42:17.830Z,7.67
2019-02-26T17:44:49.443Z,8.30
2019-02-26T17:47:20.250Z,16.10
2019-02-26T17:49:51.122Z,14.60
2019-02-26T17:52:21.901Z,11.93
2019-02-26T17:54:52.584Z,8.97
2019-02-26T17:57:23.278Z,13.10
2019-02-26T17:59:54.041Z,16.37
2019-02-26T18:02:27.341Z,23.40
2019-02-26T18:04:58.497Z,27.33
2019-02-26T18:07:29.762Z,25.27
2019-02-26T18:10:00.461Z,28.57
2019-02-26T18:12:31.205Z,20.70
2019-02-26T18:15:01.906Z,17.23
2019-02-26T18:17:32.780Z,12.67
2019-02-26T18:20:03.484Z,7.67
2019-02-26T18:22:34.294Z,7.07
2019-02-26T18:25:05.655Z,12.20
2019-02-26T18:27:36.392Z,13.80
2019-02-26T18:30:08.489Z,11.23
2019-02-26T18:32:39.161Z,20.03
2019-02-26T18:35:09.876Z,29.20
2019-02-26T18:37:46.357Z,25.13
2019-02-26T18:40:15.744Z,27.30
2019-02-26T18:42:46.615Z,20.77
2019-02-26T18:45:20.070Z,13.43
2019-02-26T18:47:50.936Z,11.43
2019-02-26T18:50:21.923Z,16.57
2019-02-26T18:52:52.693Z,13.07
2019-02-26T18:55:27.910Z,13.50
2019-02-26T18:57:56.249Z,14.90
2019-02-26T19:00:27.006Z,23.43
2019-02-26T19:02:57.777Z,24.23
2019-02-26T19:05:28.474Z,18.33
2019-02-26T19:08:05.523Z,16.83
2019-02-26T19:10:34.921Z,15.00
2019-02-26T19:13:05.776Z,6.30
2019-02-26T19:15:36.517Z,10.13
2019-02-26T19:18:08.041Z,6.70
2019-02-26T19:20:38.798Z,5.03
2019-02-26T19:23:09.581Z,12.07
2019-02-26T19:25:41.655Z,13.13
2019-02-26T19:28:12.831Z,13.53
2019-02-26T19:30:43.521Z,13.83
2019-02-26T19:33:14.350Z,10.47
2019-02-26T19:35:45.385Z,10.60
2019-02-26T19:38:16.056Z,7.80
2019-02-26T19:40:46.803Z,6.57
2019-02-26T19:43:17.538Z,7.00
2019-02-26T19:45:48.221Z,6.20
2019-02-26T19:48:18.889Z,6.20
2019-02-26T19:50:49.728Z,9.93
2019-02-26T19:53:20.400Z,10.63
2019-02-26T19:55:53.090Z,9.87
2019-02-26T19:58:23.917Z,10.23
2019-02-26T20:00:54.601Z,7.33
2019-02-26T20:03:25.277Z,7.73
2019-02-26T20:05:56.219Z,5.10
2019-02-26T20:08:26.905Z,6.27
2019-02-26T20:10:58.726Z,7.87
2019-02-26T20:13:31.760Z,8.50
2019-02-26T20:16:01.923Z,6.83
2019-02-26T20:18:33.945Z,13.33
2019-02-26T20:21:04.982Z,9.43
2019-02-26T20:23:37.086Z,8.30
2019-02-26T20:26:07.816Z,8.23
2019-02-26T20:28:38.485Z,6.70
2019-02-26T20:31:09.185Z,7.13
2019-02-26T20:33:40.154Z,9.10
2019-02-26T20:36:10.840Z,13.40
2019-02-26T20:38:41.529Z,12.80
2019-02-26T20:41:12.215Z,12.40
2019-02-26T20:43:42.896Z,10.77
2019-02-26T20:46:14.620Z,9.17
2019-02-26T20:48:45.301Z,7.67
2019-02-26T20:51:18.712Z,7.93
2019-02-26T20:53:48.336Z,7.43
2019-02-26T20:56:19.009Z,7.63
2019-02-26T20:58:49.668Z,8.00
2019-02-26T21:01:20.349Z,7.23
2019-02-26T21:03:51.094Z,7.17
2019-02-26T21:06:21.757Z,5.20
2019-02-26T21:08:52.536Z,6.83
2019-02-26T21:11:23.381Z,6.57
2019-02-26T21:13:54.208Z,6.20
2019-02-26T21:16:24.884Z,5.93
2019-02-26T21:18:55.796Z,6.00
2019-02-26T21:21:26.576Z,8.00
2019-02-26T21:24:00.412Z,7.03
2019-02-26T21:26:29.696Z,7.67
2019-02-26T21:29:00.377Z,6.23
2019-02-26T21:31:31.037Z,9.30
2019-02-26T21:34:03.729Z,9.63
2019-02-26T21:36:34.086Z,10.10
2019-02-26T21:39:06.416Z,8.80
2019-02-26T21:41:39.744Z,8.17
2019-02-26T21:44:10.497Z,10.13
2019-02-26T21:46:41.180Z,6.70
2019-02-26T21:49:11.914Z,9.60
2019-02-26T21:51:42.674Z,10.07
2019-02-26T21:54:13.353Z,8.67
2019-02-26T21:56:44.017Z,5.37
2019-02-26T21:59:14.785Z,7.57
2019-02-26T22:01:46.118Z,8.87
2019-02-26T22:04:17.209Z,6.53
2019-02-26T22:06:48.881Z,4.87
2019-02-26T22:09:19.581Z,6.53
2019-02-26T22:11:50.799Z,6.87
2019-02-26T22:14:22.097Z,9.87
2019-02-26T22:16:52.842Z,8.07
2019-02-26T22:19:23.585Z,7.13
2019-02-26T22:21:54.249Z,6.30
2019-02-26T22:24:24.922Z,7.07
2019-02-26T22:26:59.129Z,10.00
2019-02-26T22:29:29.790Z,9.10
2019-02-26T22:32:02.389Z,7.83
2019-02-26T22:34:32.755Z,8.07
2019-02-26T22:37:07.018Z,7.03
2019-02-26T22:39:35.848Z,8.30
2019-02-26T22:42:08.667Z,9.37
2019-02-26T22:44:39.458Z,8.53
2019-02-26T22:47:10.372Z,6.73
2019-02-26T22:49:41.052Z,6.60
2019-02-26T22:52:11.734Z,8.40
2019-02-26T22:54:43.473Z,6.50
2019-02-26T22:57:14.413Z,5.47
2019-02-26T22:59:45.089Z,8.00
2019-02-26T23:02:15.962Z,10.00
2019-02-26T23:04:47.009Z,12.97
2019-02-26T23:07:17.703Z,13.67
2019-02-26T23:09:52.190Z,14.53
2019-02-26T23:12:21.329Z,8.33
2019-02-26T23:14:52.066Z,11.57
2019-02-26T23:17:24.882Z,5.80
2019-02-26T23:19:55.753Z,6.73
2019-02-26T23:22:26.776Z,7.40
2019-02-26T23:25:00.662Z,7.57
2019-02-26T23:27:31.561Z,5.77
2019-02-26T23:30:02.431Z,6.97
2019-02-26T23:32:33.850Z,7.13
2019-02-26T23:35:08.686Z,6.47
2019-02-26T23:37:39.249Z,5.70
2019-02-26T23:40:10.573Z,8.30
2019-02-26T23:42:42.517Z,9.03
2019-02-26T23:45:13.409Z,7.83
2019-02-26T23:47:44.297Z,6.73
2019-02-26T23:50:14.979Z,6.13
2019-02-26T23:52:45.649Z,7.47
2019-02-26T23:55:16.328Z,6.33
2019-02-26T23:57:46.992Z,7.07
